D/T METAR WX W/DIR W/SPE G/SPE TEMP DEWP
31/05/20 06:56 EGUL 310556Z AUTO 07006KT 9999 CLR 14/11 A3022 RMK AO2 SLP237 T01360109 10136 20097 53006 $ ENE (70°) 6.9mph 13.6°C 10.9°C
31/05/20 05:56 EGUL 310456Z AUTO 04006KT 9999 CLR 11/10 A3021 RMK AO2 SLP233 T01090100 $ NE (40°) 6.9mph 10.9°C 10°C
31/05/20 04:56 EGUL 310356Z AUTO 04007KT 9999 CLR 10/09 A3020 RMK AO2 SLP230 T00990091 $ NE (40°) 8.1mph 9.9°C 9.1°C
31/05/20 03:56 EGUL 310256Z AUTO 04006KT 9999 CLR 10/09 A3020 RMK AO2 SLP230 T00970085 57008 $ NE (40°) 6.9mph 9.7°C 8.5°C
31/05/20 02:56 EGUL 310156Z AUTO 03009KT 9999 CLR 10/08 A3021 RMK AO2 SLP233 T00990078 $ NNE (30°) 10.4mph 9.9°C 7.8°C
31/05/20 01:56 EGUL 310056Z AUTO 03006KT 9999 CLR 10/06 A3021 RMK AO2 SLP233 T01010062 $ NNE (30°) 6.9mph 10.1°C 6.2°C
31/05/20 00:56 EGUL 302356Z AUTO 04004KT 9999 CLR 11/06 A3022 RMK AO2 SLP237 T01110056 10209 20111 402370072 50002 $ NE (40°) 4.6mph 11.1°C 5.6°C
30/05/20 23:56 EGUL 302256Z AUTO 05006KT 9999 CLR 12/06 A3023 RMK AO2 SLP240 T01230059 $ NE (50°) 6.9mph 12.3°C 5.9°C
30/05/20 22:56 EGUL 302156Z AUTO 06008KT 9999 CLR 13/06 A3022 RMK AO2 SLP237 T01330064 $ ENE (60°) 9.2mph 13.3°C 6.4°C
30/05/20 21:56 EGUL 302056Z AUTO 06007KT 9999 CLR 15/07 A3022 RMK AO2 SLP237 T01490067 53010 $ ENE (60°) 8.1mph 14.9°C 6.7°C
30/05/20 20:56 EGUL 301956Z AUTO 06010KT 9999 CLR 17/07 A3020 RMK AO2 SLP230 T01680066 $ ENE (60°) 11.5mph 16.8°C 6.6°C
30/05/20 19:56 EGUL 301856Z AUTO 06015KT 9999 CLR 19/05 A3019 RMK AO2 SLP227 T01920049 $ ENE (60°) 17.3mph 19.2°C 4.9°C
30/05/20 18:56 EGUL 301756Z AUTO 08010KT 9999 CLR 21/04 A3019 RMK AO2 SLP227 T02100037 10236 20210 56004 $ E (80°) 11.5mph 21°C 3.7°C
30/05/20 18:35 EGUL 301735Z AUTO 09011KT 9999 CLR 21/03 A3019 RMK AO2 WSHFT 21 SLP227 $ E (90°) 12.7mph 21°C 3°C
30/05/20 17:56 EGUL 301656Z AUTO 06012KT 9999 CLR 22/04 A3019 RMK AO2 SLP227 T02160037 $ ENE (60°) 13.8mph 21.6°C 3.7°C
30/05/20 17:08 EGUL 301608Z AUTO 06013KT 9999 CLR 22/04 A3019 RMK AO2 WSHFT 1557 SLP227 $ ENE (60°) 15.0mph 22°C 4°C
30/05/20 16:25 EGUL 301525Z AUTO 11012G18KT 9999 CLR 23/04 A3020 RMK AO2 WSHFT 13 SLP230 $ ESE (110°) 13.8mph 20.7mph 23°C 4°C
30/05/20 16:04 EGUL 301504Z AUTO 07013KT 9999 CLR 23/04 A3020 RMK AO2 WSHFT 00 SLP230 $ ENE (70°) 15.0mph 23°C 4°C
30/05/20 15:40 EGUL 301440Z AUTO 07014G17KT 9999 CLR 23/03 A3021 RMK AO2 WSHFT 38 SLP233 $ ENE (70°) 16.1mph 19.6mph 23°C 3°C
30/05/20 15:03 EGUL 301403Z AUTO 10013G16KT 9999 CLR 24/04 A3021 RMK AO2 WSHFT 01 SLP233 $ E (100°) 15.0mph 18.4mph 24°C 4°C
30/05/20 14:40 EGUL 301340Z AUTO 10011G18KT 9999 CLR 23/05 A3021 RMK AO2 WSHFT 36 SLP233 $ E (100°) 12.7mph 20.7mph 23°C 5°C
30/05/20 13:58 EGUL 301258Z AUTO 08011KT 9999 CLR 23/05 A3021 RMK AO2 WSHFT 55 SLP233 $ E (80°) 12.7mph 23°C 5°C
30/05/20 12:56 EGUL 301156Z AUTO 10011KT 9999 CLR 24/05 A3022 RMK AO2 SLP237 T02350049 10237 20118 56011 $ E (100°) 12.7mph 23.5°C 4.9°C
30/05/20 11:56 EGUL 301056Z AUTO 11006KT 9999 CLR 22/05 A3022 RMK AO2 SLP237 T02240053 $ ESE (110°) 6.9mph 22.4°C 5.3°C
30/05/20 10:56 EGUL 300956Z AUTO 11009KT 9999 CLR 22/07 A3024 RMK AO2 SLP244 T02150070 $ ESE (110°) 10.4mph 21.5°C 7°C
30/05/20 09:56 EGUL 300856Z AUTO 11006KT 9999 CLR 19/10 A3025 RMK AO2 SLP247 T01910098 55001 $ ESE (110°) 6.9mph 19.1°C 9.8°C
30/05/20 08:56 EGUL 300756Z AUTO 05007KT 9999 CLR 17/10 A3025 RMK AO2 SLP247 T01720103 $ NE (50°) 8.1mph 17.2°C 10.3°C
30/05/20 07:56 EGUL 300656Z AUTO 05008KT 9999 CLR 15/11 A3025 RMK AO2 SLP247 T01460106 $ NE (50°) 9.2mph 14.6°C 10.6°C
30/05/20 06:56 EGUL 300556Z AUTO 04004KT 9999 CLR 12/10 A3026 RMK AO2 SLP250 T01170103 10117 20072 56003 $ NE (40°) 4.6mph 11.7°C 10.3°C
30/05/20 05:56 EGUL 300456Z AUTO 01004KT 9999 CLR 09/09 A3026 RMK AO2 SLP251 T00850085 $ N (10°) 4.6mph 8.5°C 8.5°C
30/05/20 04:56 EGUL 300356Z AUTO 35003KT 9999 CLR 07/07 A3026 RMK AO2 SLP251 T00720072 $ N (350°) 3.5mph 7.2°C 7.2°C
30/05/20 03:56 EGUL 300256Z AUTO 00000KT 9999 CLR 08/08 A3027 RMK AO2 SLP254 T00750075 57010 $ N (0°) 7.5°C 7.5°C
30/05/20 02:56 EGUL 300156Z AUTO 04006KT 9999 CLR 08/07 A3027 RMK AO2 SLP254 T00790073 $ NE (40°) 6.9mph 7.9°C 7.3°C
30/05/20 01:56 EGUL 300056Z AUTO 04007KT 9999 CLR 08/07 A3028 RMK AO2 SLP257 T00830071 $ NE (40°) 8.1mph 8.3°C 7.1°C
30/05/20 00:56 EGUL 292356Z AUTO 05005KT 9999 CLR 08/06 A3029 RMK AO2 SLP261 T00820063 10186 20082 402200067 58002 $ NE (50°) 5.8mph 8.2°C 6.3°C
29/05/20 23:56 EGUL 292256Z AUTO 05006KT 9999 CLR 10/07 A3030 RMK AO2 SLP264 T00950066 $ NE (50°) 6.9mph 9.5°C 6.6°C
29/05/20 22:56 EGUL 292156Z AUTO 06008KT 9999 CLR 11/06 A3030 RMK AO2 SLP264 T01080055 $ ENE (60°) 9.2mph 10.8°C 5.5°C
29/05/20 21:56 EGUL 292056Z AUTO 07007KT 9999 CLR 12/04 A3030 RMK AO2 SLP264 T01230038 53004 $ ENE (70°) 8.1mph 12.3°C 3.8°C
29/05/20 20:56 EGUL 291956Z AUTO 07009KT 9999 CLR 15/03 A3029 RMK AO2 SLP261 T01460031 $ ENE (70°) 10.4mph 14.6°C 3.1°C
29/05/20 19:56 EGUL 291856Z AUTO 06011KT 9999 CLR 17/01 A3028 RMK AO2 SLP257 T01690013 $ ENE (60°) 12.7mph 16.9°C 1.3°C
29/05/20 18:56 EGUL 291756Z AUTO 07009KT 9999 CLR 19/02 A3029 RMK AO2 SLP261 T01870021 10220 20187 57008 $ ENE (70°) 10.4mph 18.7°C 2.1°C
29/05/20 17:56 EGUL 291656Z AUTO 06011KT 9999 CLR 20/01 A3030 RMK AO2 SLP264 T01980012 $ ENE (60°) 12.7mph 19.8°C 1.2°C
29/05/20 16:56 EGUL 291556Z AUTO 08011KT 9999 CLR 21/03 A3030 RMK AO2 SLP264 T02080026 $ E (80°) 12.7mph 20.8°C 2.6°C
29/05/20 15:56 EGUL 291456Z AUTO 07010G15KT 9999 CLR 21/03 A3031 RMK AO2 SLP267 T02140026 57017 $ ENE (70°) 11.5mph 17.3mph 21.4°C 2.6°C
29/05/20 14:56 EGUL 291356Z AUTO 05010KT 9999 CLR 21/02 A3033 RMK AO2 SLP274 T02120024 $ NE (50°) 11.5mph 21.2°C 2.4°C
29/05/20 13:56 EGUL 291256Z AUTO 07008G16KT 9999 CLR 22/02 A3034 RMK AO2 SLP278 T02160023 $ ENE (70°) 9.2mph 18.4mph 21.6°C 2.3°C
29/05/20 13:41 EGUL 291241Z AUTO 07011G16KT 9999 CLR 21/02 A3034 RMK AO2 WSHFT 39 SLP278 $ ENE (70°) 12.7mph 18.4mph 21°C 2°C
29/05/20 12:56 EGUL 291156Z AUTO 08007KT 9999 FEW210 21/02 A3036 RMK AO2 SLP284 T02130020 10213 20120 57014 $ E (80°) 8.1mph 21.3°C 2°C
29/05/20 11:56 EGUL 291056Z AUTO 10009G15KT 9999 CLR 20/02 A3038 RMK AO2 SLP291 T02030017 $ E (100°) 10.4mph 17.3mph 20.3°C 1.7°C
29/05/20 10:56 EGUL 290956Z AUTO 11010KT 9999 CLR 20/03 A3040 RMK AO2 SLP298 T01970030 $ ESE (110°) 11.5mph 19.7°C 3°C
29/05/20 09:56 EGUL 290856Z AUTO 08008KT 9999 CLR 18/03 A3040 RMK AO2 SLP298 T01820029 57004 $ E (80°) 9.2mph 18.2°C 2.9°C
29/05/20 08:56 EGUL 290756Z AUTO 09006KT 9999 CLR 17/03 A3040 RMK AO2 SLP298 T01650032 $ E (90°) 6.9mph 16.5°C 3.2°C
29/05/20 07:56 EGUL 290656Z AUTO 09008KT 9999 CLR 15/06 A3041 RMK AO2 SLP301 T01450063 $ E (90°) 9.2mph 14.5°C 6.3°C
29/05/20 06:56 EGUL 290556Z AUTO 09008KT 9999 CLR 12/09 A3041 RMK AO2 SLP301 T01190089 10119 20067 55004 $ E (90°) 9.2mph 11.9°C 8.9°C
29/05/20 05:56 EGUL 290456Z AUTO 00000KT 9999 CLR 09/07 A3042 RMK AO2 SLP305 T00850073 $ N (0°) 8.5°C 7.3°C
29/05/20 04:56 EGUL 290356Z AUTO 00000KT 9999 CLR 07/06 A3042 RMK AO2 SLP305 T00730061 $ N (0°) 7.3°C 6.1°C
29/05/20 03:56 EGUL 290256Z AUTO 02003KT 9999 CLR 07/05 A3043 RMK AO2 SLP308 T00730051 57006 $ NNE (20°) 3.5mph 7.3°C 5.1°C
29/05/20 02:56 EGUL 290156Z AUTO 00000KT 9999 CLR 07/05 A3043 RMK AO2 SLP308 T00730049 $ N (0°) 7.3°C 4.9°C
29/05/20 01:56 EGUL 290056Z AUTO 00000KT 9999 CLR 10/06 A3044 RMK AO2 SLP311 T00950055 $ N (0°) 9.5°C 5.5°C
29/05/20 00:56 EGUL 282356Z AUTO 08004KT 9999 CLR 10/05 A3044 RMK AO2 SLP311 T01010049 10188 20101 402160058 58008 $ E (80°) 4.6mph 10.1°C 4.9°C
28/05/20 23:56 EGUL 282256Z AUTO 08004KT 9999 CLR 11/04 A3046 RMK AO2 SLP318 T01060041 $ E (80°) 4.6mph 10.6°C 4.1°C
28/05/20 22:56 EGUL 282156Z AUTO 08004KT 9999 CLR 12/05 A3047 RMK AO2 SLP322 T01180045 $ E (80°) 4.6mph 11.8°C 4.5°C
28/05/20 21:56 EGUL 282056Z AUTO 10006KT 9999 CLR 13/04 A3047 RMK AO2 SLP322 T01320044 52002 $ E (100°) 6.9mph 13.2°C 4.4°C
28/05/20 20:56 EGUL 281956Z AUTO 11007KT 9999 CLR 15/04 A3047 RMK AO2 SLP322 T01520043 $ ESE (110°) 8.1mph 15.2°C 4.3°C
28/05/20 19:56 EGUL 281856Z AUTO 10010KT 9999 CLR 17/05 A3047 RMK AO2 SLP322 T01720045 $ E (100°) 11.5mph 17.2°C 4.5°C
28/05/20 18:56 EGUL 281756Z AUTO 10010KT 9999 CLR 19/05 A3046 RMK AO2 SLP318 T01880045 10216 20188 56008 $ E (100°) 11.5mph 18.8°C 4.5°C
28/05/20 17:56 EGUL 281656Z AUTO 10009KT 9999 CLR 20/04 A3047 RMK AO2 SLP322 T02040040 $ E (100°) 10.4mph 20.4°C 4°C
28/05/20 16:56 EGUL 281556Z AUTO 11011G14KT 9999 CLR 21/05 A3047 RMK AO2 SLP322 T02100045 $ ESE (110°) 12.7mph 16.1mph 21°C 4.5°C
28/05/20 15:56 EGUL 281456Z AUTO 07006KT 9999 CLR 21/04 A3049 RMK AO2 SLP328 T02090044 57015 $ ENE (70°) 6.9mph 20.9°C 4.4°C
28/05/20 14:56 EGUL 281356Z AUTO 10006KT 9999 CLR 21/04 A3050 RMK AO2 SLP332 T02080039 $ E (100°) 6.9mph 20.8°C 3.9°C
28/05/20 13:56 EGUL 281256Z AUTO 07008KT 9999 CLR 21/05 A3052 RMK AO2 SLPNO T02080048 $ ENE (70°) 9.2mph 20.8°C 4.8°C
28/05/20 12:56 EGUL 281156Z AUTO 05008KT 9999 CLR 20/05 A3053 RMK AO2 SLP342 T02000045 10202 20096 57014 $ NE (50°) 9.2mph 20°C 4.5°C
28/05/20 11:56 EGUL 281056Z AUTO 15007KT 9999 CLR 19/05 A3055 RMK AO2 SLP349 T01900054 $ SSE (150°) 8.1mph 19°C 5.4°C
28/05/20 10:56 EGUL 280956Z AUTO 18006KT 9999 CLR 18/06 A3056 RMK AO2 SLP352 T01810063 $ S (180°) 6.9mph 18.1°C 6.3°C
28/05/20 09:56 EGUL 280856Z AUTO 11008KT 9999 CLR 17/06 A3057 RMK AO2 SLP355 T01720064 58008 $ ESE (110°) 9.2mph 17.2°C 6.4°C
28/05/20 08:56 EGUL 280756Z AUTO 16006KT 9999 CLR 15/08 A3059 RMK AO2 SLP362 T01540082 $ SSE (160°) 6.9mph 15.4°C 8.2°C
28/05/20 07:56 EGUL 280656Z AUTO 14006KT 9999 CLR 13/09 A3060 RMK AO2 SLP366 T01340089 $ SE (140°) 6.9mph 13.4°C 8.9°C
28/05/20 06:56 EGUL 280556Z AUTO 00000KT 9999 CLR 10/09 A3060 RMK AO2 SLP366 T00950092 10097 20058 53000 $ N (0°) 9.5°C 9.2°C
28/05/20 05:56 EGUL 280456Z AUTO 00000KT 9999 CLR 06/06 A3060 RMK AO2 SLP366 T00590059 $ N (0°) 5.9°C 5.9°C
28/05/20 04:56 EGUL 280356Z AUTO 00000KT 9999 CLR 06/06 A3059 RMK AO2 SLP362 T00580058 $ N (0°) 5.8°C 5.8°C
28/05/20 03:56 EGUL 280256Z AUTO 00000KT 9999 CLR 07/07 A3060 RMK AO2 SLP366 T00740074 $ N (0°) 7.4°C 7.4°C
28/05/20 02:56 EGUL 280156Z AUTO 00000KT 9999 CLR 09/08 A3060 RMK AO2 SLP366 T00860084 $ N (0°) 8.6°C 8.4°C
28/05/20 01:57 EGUL 280057Z AUTO M 9999 M M M RMK AO2 SLPNO $ N (0°) 0°C 0°C
28/05/20 01:21 EGUL 280021Z AUTO 08005KT 9999 BKN007 10/09 A3060 RMK AO2 BKN V SCT SLP366 $ E (80°) 5.8mph 10°C 9°C
27/05/20 23:56 EGUL 272256Z AUTO 09003KT 9999 CLR 11/09 A3061 RMK AO2 SLP369 T01110088 $ E (90°) 3.5mph 11.1°C 8.8°C
27/05/20 22:56 EGUL 272156Z AUTO 08005KT 9999 CLR 12/09 A3061 RMK AO2 SLP369 T01230088 $ E (80°) 5.8mph 12.3°C 8.8°C
27/05/20 21:56 EGUL 272056Z AUTO 08005KT 9999 SCT080 14/10 A3060 RMK AO2 SLP365 T01390095 52016 $ E (80°) 5.8mph 13.9°C 9.5°C
27/05/20 20:56 EGUL 271956Z AUTO 08007KT 9999 CLR 16/10 A3059 RMK AO2 SLP362 T01560097 $ E (80°) 8.1mph 15.6°C 9.7°C
27/05/20 19:56 EGUL 271856Z AUTO 09006KT 9999 FEW085 17/10 A3057 RMK AO2 SLP355 T01740103 $ E (90°) 6.9mph 17.4°C 10.3°C
27/05/20 18:56 EGUL 271756Z AUTO 11010KT 9999 SCT034 19/11 A3055 RMK AO2 SLP349 T01930113 10234 20193 53004 $ ESE (110°) 11.5mph 19.3°C 11.3°C
27/05/20 17:56 EGUL 271656Z AUTO 05014G21KT 9999 CLR 21/12 A3054 RMK AO2 SLP345 T02130122 $ NE (50°) 16.1mph 24.2mph 21.3°C 12.2°C
27/05/20 16:56 EGUL 271556Z AUTO 00000KT 9999 FEW060 23/11 A3053 RMK AO2 SLP342 T02270108 $ N (0°) 22.7°C 10.8°C
27/05/20 15:56 EGUL 271456Z AUTO 00000KT 9999 FEW048 SCT065 22/11 A3054 RMK AO2 SLP345 T02220107 $ N (0°) 22.2°C 10.7°C
27/05/20 14:56 EGUL 271356Z AUTO 00000KT 9999 SCT060 23/11 A3055 RMK AO2 SLP349 T02250109 $ N (0°) 22.5°C 10.9°C
27/05/20 13:56 EGUL 271256Z AUTO 00000KT 9999 SCT040 SCT055 22/12 A3056 RMK AO2 SLP352 T02180118 $ N (0°) 21.8°C 11.8°C
27/05/20 12:56 EGUL 271156Z 30007KT 9999 BKN040 BKN160 21/12 A3057 RMK SLPNO WIND/ALSTG ESTMD WNW (300°) 8.1mph 21°C 12°C